Kapolei, HI (96709)

12:03 PM HST on October 22, 2014 (GMT -1000)
Ewa | Change Station
CLOSE
Current Station
Personal Weather Station
Location: Ewa Beach, HI
Elevation: 46 ft
Nearby Weather Stations

Elev 46 ft 21.34 °N, 158.03 °W | Updated 31 minutes ago

Mostly Cloudy
Mostly Cloudy
82.3 °F
Feels Like 90 °F
N
4.0
Wind Variable Wind from ESE
Gusts 7.4 mph

Today
High -- | Low -- °F
--% Chance of Precip.
Yesterday
High -- | Low -- °F
Precip. -- in
6:30 AM 6:02 PM
Waning Crescent, 1% visible
Pressure 30.04 in
Visibility 10.0 miles
Clouds Few 4100 ft
Scattered Clouds 5500 ft
Mostly Cloudy 9000 ft
Heat Index 90 °F
Dew Point 76 °F
Humidity 80%
Rainfall -999.00 in
Snow Depth Not available.
UV 5 out of 12
Pollen Not available.
Air Quality Not available.
Flu Activity Sporadic
METAR PHJR 222153Z 14006KT 10SM FEW041 SCT055 BKN090 28/23 A3002 RMK AO2 SLP172 T02780233

More Conditions Fewer Conditions

Pressure 30.04 in
Visibility 10.0 miles
Clouds Few 4100 ft
Scattered Clouds 5500 ft
Mostly Cloudy 9000 ft
Heat Index 90 °F
Dew Point 76 °F
Humidity 80%
Rainfall -999.00 in
Snow Depth Not available.
UV 5 out of 12
Pollen Not available.
Air Quality Not available.
Flu Activity Sporadic
METAR PHJR 222153Z 14006KT 10SM FEW041 SCT055 BKN090 28/23 A3002 RMK AO2 SLP172 T02780233

More Conditions Fewer Conditions

10-Day Weather Forecast

Almanac

Astronomy

Oct. 22, 2014 Rise Set
Actual Time 6:30 AM HST 6:02 PM HST
Civil Twilight 6:07 AM HST 6:24 PM HST
Nautical Twilight 5:41 AM HST 6:50 PM HST
Astronomical Twilight 5:15 AM HST 7:16 PM HST
Moon 5:30 AM HST 5:30 PM HST
Length of Visible Light 12h 16m
Length of Day
11h 31m
Tomorrow will be 1m 8s shorter.
Waning Crescent, 1% of the Moon is Illuminated
Today
Waning Crescent
Oct 23
New
Oct 30
First Quarter
Nov 6
Full
Nov 14
Last Quarter

Today's Extremes

State Highs State Lows

Community

WunderPhotos

Upload Photos

1,764,052 photos uploaded!

WunderBlogs® & News

Nearby

Snow Depth

Station Depth Elevation
No new snow has been reported.

Earthquake Activity

City Distance Mag. Time & Date
No recent earthquake activity has been reported nearby.
Minimum magnitude displayed is 2.5.

Coastal Water Temperatures

Place Temperature
No Stations Reporting

Nearby Weather Stations